sensor_id;sensor_type;location;lat;lon;timestamp;temperature;humidity
2523;DHT22;1272;53.332;9.860;2024-02-04T00:00:30;6.90;99.90
2523;DHT22;1272;53.332;9.860;2024-02-04T00:02:56;6.90;99.90
2523;DHT22;1272;53.332;9.860;2024-02-04T00:05:21;6.80;99.90
2523;DHT22;1272;53.332;9.860;2024-02-04T00:07:47;6.90;99.90
2523;DHT22;1272;53.332;9.860;2024-02-04T00:10:13;6.90;99.90
2523;DHT22;1272;53.332;9.860;2024-02-04T00:12:41;6.90;43.00
2523;DHT22;1272;53.332;9.860;2024-02-04T00:15:07;6.90;1.00
2523;DHT22;1272;53.332;9.860;2024-02-04T00:17:33;6.90;1.00
2523;DHT22;1272;53.332;9.860;2024-02-04T00:20:03;6.80;99.90
2523;DHT22;1272;53.332;9.860;2024-02-04T00:22:31;6.80;99.90
2523;DHT22;1272;53.332;9.860;2024-02-04T00:24:57;6.70;99.90
2523;DHT22;1272;53.332;9.860;2024-02-04T00:27:27;6.70;1.00
2523;DHT22;1272;53.332;9.860;2024-02-04T00:29:53;6.70;1.00
2523;DHT22;1272;53.332;9.860;2024-02-04T00:32:18;6.80;99.90
2523;DHT22;1272;53.332;9.860;2024-02-04T00:34:44;6.80;99.90
2523;DHT22;1272;53.332;9.860;2024-02-04T00:37:10;6.70;99.90
2523;DHT22;1272;53.332;9.860;2024-02-04T00:39:35;6.80;99.90
2523;DHT22;1272;53.332;9.860;2024-02-04T00:42:01;6.70;99.90
2523;DHT22;1272;53.332;9.860;2024-02-04T00:44:27;6.70;99.90
2523;DHT22;1272;53.332;9.860;2024-02-04T00:46:52;6.60;1.00
2523;DHT22;1272;53.332;9.860;2024-02-04T00:49:18;6.60;1.00
2523;DHT22;1272;53.332;9.860;2024-02-04T00:51:43;6.50;1.00
2523;DHT22;1272;53.332;9.860;2024-02-04T00:54:10;6.50;70.40
2523;DHT22;1272;53.332;9.860;2024-02-04T00:56:35;6.50;99.90
2523;DHT22;1272;53.332;9.860;2024-02-04T00:59:03;6.60;99.90
2523;DHT22;1272;53.332;9.860;2024-02-04T01:01:29;6.50;99.90
2523;DHT22;1272;53.332;9.860;2024-02-04T01:03:54;6.50;99.90
2523;DHT22;1272;53.332;9.860;2024-02-04T01:06:20;6.50;99.90
2523;DHT22;1272;53.332;9.860;2024-02-04T01:08:46;6.60;99.90
2523;DHT22;1272;53.332;9.860;2024-02-04T01:11:11;6.50;99.90
2523;DHT22;1272;53.332;9.860;2024-02-04T01:13:37;6.50;99.90
2523;DHT22;1272;53.332;9.860;2024-02-04T01:16:03;6.50;1.00
2523;DHT22;1272;53.332;9.860;2024-02-04T01:18:29;6.50;1.00
2523;DHT22;1272;53.332;9.860;2024-02-04T01:20:56;6.50;99.90
2523;DHT22;1272;53.332;9.860;2024-02-04T01:23:22;6.50;99.90
2523;DHT22;1272;53.332;9.860;2024-02-04T01:25:48;6.50;1.00
2523;DHT22;1272;53.332;9.860;2024-02-04T01:28:14;6.40;1.00
2523;DHT22;1272;53.332;9.860;2024-02-04T01:30:40;6.50;1.00
2523;DHT22;1272;53.332;9.860;2024-02-04T01:33:05;6.50;1.00
2523;DHT22;1272;53.332;9.860;2024-02-04T01:35:31;6.50;1.00
2523;DHT22;1272;53.332;9.860;2024-02-04T01:37:57;6.50;97.80
2523;DHT22;1272;53.332;9.860;2024-02-04T01:40:23;6.60;99.90
2523;DHT22;1272;53.332;9.860;2024-02-04T01:42:48;6.60;1.00
2523;DHT22;1272;53.332;9.860;2024-02-04T01:45:14;6.70;1.00
2523;DHT22;1272;53.332;9.860;2024-02-04T01:47:40;6.70;1.00
2523;DHT22;1272;53.332;9.860;2024-02-04T01:50:06;6.70;1.00
2523;DHT22;1272;53.332;9.860;2024-02-04T01:52:33;6.70;1.00
2523;DHT22;1272;53.332;9.860;2024-02-04T01:55:03;6.70;99.90
2523;DHT22;1272;53.332;9.860;2024-02-04T01:57:31;6.60;99.90
2523;DHT22;1272;53.332;9.860;2024-02-04T01:59:56;6.80;99.90
2523;DHT22;1272;53.332;9.860;2024-02-04T02:02:25;6.80;27.20
2523;DHT22;1272;53.332;9.860;2024-02-04T02:04:51;6.70;99.90
2523;DHT22;1272;53.332;9.860;2024-02-04T02:07:18;6.80;99.90
2523;DHT22;1272;53.332;9.860;2024-02-04T02:09:46;6.90;1.00
2523;DHT22;1272;53.332;9.860;2024-02-04T02:12:20;6.90;1.00
2523;DHT22;1272;53.332;9.860;2024-02-04T02:14:54;6.90;1.00
2523;DHT22;1272;53.332;9.860;2024-02-04T02:17:37;7.00;1.00
2523;DHT22;1272;53.332;9.860;2024-02-04T02:20:13;7.00;99.90
2523;DHT22;1272;53.332;9.860;2024-02-04T02:23:08;7.00;99.90
2523;DHT22;1272;53.332;9.860;2024-02-04T02:25:38;7.00;99.90
2523;DHT22;1272;53.332;9.860;2024-02-04T02:28:05;7.00;99.90
2523;DHT22;1272;53.332;9.860;2024-02-04T02:30:31;6.90;99.90
2523;DHT22;1272;53.332;9.860;2024-02-04T02:32:57;7.00;99.90
2523;DHT22;1272;53.332;9.860;2024-02-04T02:35:23;7.00;99.90
2523;DHT22;1272;53.332;9.860;2024-02-04T02:40:29;7.00;99.90
2523;DHT22;1272;53.332;9.860;2024-02-04T02:42:57;7.00;99.90
2523;DHT22;1272;53.332;9.860;2024-02-04T02:45:26;7.00;99.90
2523;DHT22;1272;53.332;9.860;2024-02-04T02:47:52;6.90;99.90
2523;DHT22;1272;53.332;9.860;2024-02-04T02:50:19;7.00;99.90
2523;DHT22;1272;53.332;9.860;2024-02-04T02:52:45;6.90;99.90
2523;DHT22;1272;53.332;9.860;2024-02-04T02:55:11;6.90;99.90
2523;DHT22;1272;53.332;9.860;2024-02-04T02:57:37;7.00;99.90
2523;DHT22;1272;53.332;9.860;2024-02-04T03:00:03;7.00;42.80
2523;DHT22;1272;53.332;9.860;2024-02-04T03:02:31;6.90;99.90
2523;DHT22;1272;53.332;9.860;2024-02-04T03:04:57;6.80;18.80
2523;DHT22;1272;53.332;9.860;2024-02-04T03:07:22;6.90;1.00
2523;DHT22;1272;53.332;9.860;2024-02-04T03:09:48;6.80;1.00
2523;DHT22;1272;53.332;9.860;2024-02-04T03:12:13;6.80;99.90
2523;DHT22;1272;53.332;9.860;2024-02-04T03:14:39;6.80;17.10
2523;DHT22;1272;53.332;9.860;2024-02-04T03:17:05;6.80;99.90
2523;DHT22;1272;53.332;9.860;2024-02-04T03:19:31;6.80;56.10
2523;DHT22;1272;53.332;9.860;2024-02-04T03:21:56;6.70;99.90
2523;DHT22;1272;53.332;9.860;2024-02-04T03:24:22;6.70;1.00
2523;DHT22;1272;53.332;9.860;2024-02-04T03:26:48;6.60;50.90
2523;DHT22;1272;53.332;9.860;2024-02-04T03:29:13;6.70;99.90
2523;DHT22;1272;53.332;9.860;2024-02-04T03:31:39;6.60;1.00
2523;DHT22;1272;53.332;9.860;2024-02-04T03:34:05;6.60;99.90
2523;DHT22;1272;53.332;9.860;2024-02-04T03:36:30;6.50;99.90
2523;DHT22;1272;53.332;9.860;2024-02-04T03:38:57;6.50;1.00
2523;DHT22;1272;53.332;9.860;2024-02-04T03:41:22;6.60;99.90
2523;DHT22;1272;53.332;9.860;2024-02-04T03:43:48;6.50;1.00
2523;DHT22;1272;53.332;9.860;2024-02-04T03:46:17;6.50;99.90
2523;DHT22;1272;53.332;9.860;2024-02-04T03:48:43;6.50;44.70
2523;DHT22;1272;53.332;9.860;2024-02-04T03:51:14;6.40;99.90
2523;DHT22;1272;53.332;9.860;2024-02-04T03:53:40;6.50;99.90
2523;DHT22;1272;53.332;9.860;2024-02-04T03:56:06;6.50;99.90
2523;DHT22;1272;53.332;9.860;2024-02-04T03:58:32;6.60;99.90
2523;DHT22;1272;53.332;9.860;2024-02-04T04:00:58;6.50;99.60
2523;DHT22;1272;53.332;9.860;2024-02-04T04:03:25;6.50;99.90
2523;DHT22;1272;53.332;9.860;2024-02-04T04:05:52;6.40;99.90
2523;DHT22;1272;53.332;9.860;2024-02-04T04:08:18;6.40;1.00
2523;DHT22;1272;53.332;9.860;2024-02-04T04:10:45;6.40;1.00
2523;DHT22;1272;53.332;9.860;2024-02-04T04:13:10;6.40;1.00
2523;DHT22;1272;53.332;9.860;2024-02-04T04:15:38;6.30;1.00
2523;DHT22;1272;53.332;9.860;2024-02-04T04:18:04;6.40;1.00
2523;DHT22;1272;53.332;9.860;2024-02-04T04:20:30;6.40;1.00
2523;DHT22;1272;53.332;9.860;2024-02-04T04:22:55;6.40;1.00
2523;DHT22;1272;53.332;9.860;2024-02-04T04:25:21;6.30;1.00
2523;DHT22;1272;53.332;9.860;2024-02-04T04:27:47;6.30;1.00
2523;DHT22;1272;53.332;9.860;2024-02-04T04:30:12;6.30;1.00
2523;DHT22;1272;53.332;9.860;2024-02-04T04:32:38;6.20;1.00
2523;DHT22;1272;53.332;9.860;2024-02-04T04:35:04;6.20;26.90
2523;DHT22;1272;53.332;9.860;2024-02-04T04:37:30;6.20;81.80
2523;DHT22;1272;53.332;9.860;2024-02-04T04:39:55;6.20;99.50
2523;DHT22;1272;53.332;9.860;2024-02-04T04:42:21;6.20;99.30
2523;DHT22;1272;53.332;9.860;2024-02-04T04:44:46;6.20;66.90
2523;DHT22;1272;53.332;9.860;2024-02-04T04:47:12;6.20;89.80
2523;DHT22;1272;53.332;9.860;2024-02-04T04:49:39;6.20;99.90
2523;DHT22;1272;53.332;9.860;2024-02-04T04:52:05;6.10;99.90
2523;DHT22;1272;53.332;9.860;2024-02-04T04:54:31;6.20;99.90
2523;DHT22;1272;53.332;9.860;2024-02-04T04:56:56;6.20;99.90
2523;DHT22;1272;53.332;9.860;2024-02-04T04:59:22;6.10;99.90
2523;DHT22;1272;53.332;9.860;2024-02-04T05:01:48;6.00;99.90
2523;DHT22;1272;53.332;9.860;2024-02-04T05:04:15;6.10;99.90
2523;DHT22;1272;53.332;9.860;2024-02-04T05:06:41;6.20;99.90
2523;DHT22;1272;53.332;9.860;2024-02-04T05:09:07;6.10;95.00
2523;DHT22;1272;53.332;9.860;2024-02-04T05:11:33;6.00;89.90
2523;DHT22;1272;53.332;9.860;2024-02-04T05:13:58;6.10;99.90
2523;DHT22;1272;53.332;9.860;2024-02-04T05:16:24;6.10;99.90
2523;DHT22;1272;53.332;9.860;2024-02-04T05:18:50;6.10;9.00
2523;DHT22;1272;53.332;9.860;2024-02-04T05:21:16;6.10;19.90
2523;DHT22;1272;53.332;9.860;2024-02-04T05:23:41;6.10;64.20
2523;DHT22;1272;53.332;9.860;2024-02-04T05:26:07;6.00;50.20
2523;DHT22;1272;53.332;9.860;2024-02-04T05:28:33;6.00;92.50
2523;DHT22;1272;53.332;9.860;2024-02-04T05:30:58;6.00;90.00
2523;DHT22;1272;53.332;9.860;2024-02-04T05:33:24;6.00;99.90
2523;DHT22;1272;53.332;9.860;2024-02-04T05:35:50;6.00;71.30
2523;DHT22;1272;53.332;9.860;2024-02-04T05:38:18;6.00;97.40
2523;DHT22;1272;53.332;9.860;2024-02-04T05:40:44;6.00;48.30
2523;DHT22;1272;53.332;9.860;2024-02-04T05:43:10;6.00;69.60
2523;DHT22;1272;53.332;9.860;2024-02-04T05:45:38;6.00;35.00
2523;DHT22;1272;53.332;9.860;2024-02-04T05:48:07;6.00;41.30
2523;DHT22;1272;53.332;9.860;2024-02-04T05:50:33;6.00;1.00
2523;DHT22;1272;53.332;9.860;2024-02-04T05:52:58;6.00;1.00
2523;DHT22;1272;53.332;9.860;2024-02-04T05:55:24;6.00;1.00
2523;DHT22;1272;53.332;9.860;2024-02-04T05:57:50;6.00;1.00
2523;DHT22;1272;53.332;9.860;2024-02-04T06:00:16;6.00;1.00
2523;DHT22;1272;53.332;9.860;2024-02-04T06:02:42;5.90;1.00
2523;DHT22;1272;53.332;9.860;2024-02-04T06:05:12;5.90;1.00
2523;DHT22;1272;53.332;9.860;2024-02-04T06:07:38;6.00;1.00
2523;DHT22;1272;53.332;9.860;2024-02-04T06:10:04;6.00;1.00
2523;DHT22;1272;53.332;9.860;2024-02-04T06:12:30;5.90;1.00
2523;DHT22;1272;53.332;9.860;2024-02-04T06:14:56;5.90;1.00
2523;DHT22;1272;53.332;9.860;2024-02-04T06:17:21;5.90;1.00
2523;DHT22;1272;53.332;9.860;2024-02-04T06:19:47;5.90;1.00
2523;DHT22;1272;53.332;9.860;2024-02-04T06:22:14;6.00;1.00
2523;DHT22;1272;53.332;9.860;2024-02-04T06:24:40;5.90;1.00
2523;DHT22;1272;53.332;9.860;2024-02-04T06:27:08;5.90;1.00
2523;DHT22;1272;53.332;9.860;2024-02-04T06:29:33;6.00;1.00
2523;DHT22;1272;53.332;9.860;2024-02-04T06:31:59;6.00;99.90
2523;DHT22;1272;53.332;9.860;2024-02-04T06:34:25;6.00;99.90
2523;DHT22;1272;53.332;9.860;2024-02-04T06:36:51;6.00;99.90
2523;DHT22;1272;53.332;9.860;2024-02-04T06:39:16;6.00;99.90
2523;DHT22;1272;53.332;9.860;2024-02-04T06:41:42;6.00;99.90
2523;DHT22;1272;53.332;9.860;2024-02-04T06:44:08;5.90;99.90
2523;DHT22;1272;53.332;9.860;2024-02-04T06:46:34;6.00;92.90
2523;DHT22;1272;53.332;9.860;2024-02-04T06:48:59;6.00;1.00
2523;DHT22;1272;53.332;9.860;2024-02-04T06:51:25;5.90;78.30
2523;DHT22;1272;53.332;9.860;2024-02-04T06:53:51;5.90;97.30
2523;DHT22;1272;53.332;9.860;2024-02-04T06:56:16;5.90;69.60
2523;DHT22;1272;53.332;9.860;2024-02-04T06:58:42;6.00;1.00
2523;DHT22;1272;53.332;9.860;2024-02-04T07:01:09;6.00;1.00
2523;DHT22;1272;53.332;9.860;2024-02-04T07:03:35;5.90;1.00
2523;DHT22;1272;53.332;9.860;2024-02-04T07:06:01;6.00;1.00
2523;DHT22;1272;53.332;9.860;2024-02-04T07:08:27;6.00;99.90
2523;DHT22;1272;53.332;9.860;2024-02-04T07:10:53;6.10;99.90
2523;DHT22;1272;53.332;9.860;2024-02-04T07:13:19;6.00;99.90
2523;DHT22;1272;53.332;9.860;2024-02-04T07:15:45;6.00;99.90
2523;DHT22;1272;53.332;9.860;2024-02-04T07:18:11;6.00;99.90
2523;DHT22;1272;53.332;9.860;2024-02-04T07:20:37;6.00;99.90
2523;DHT22;1272;53.332;9.860;2024-02-04T07:23:04;6.00;99.90
2523;DHT22;1272;53.332;9.860;2024-02-04T07:25:30;6.00;22.40
2523;DHT22;1272;53.332;9.860;2024-02-04T07:27:55;6.10;63.70
2523;DHT22;1272;53.332;9.860;2024-02-04T07:30:22;6.10;1.00
2523;DHT22;1272;53.332;9.860;2024-02-04T07:32:48;6.10;1.00
2523;DHT22;1272;53.332;9.860;2024-02-04T07:35:14;6.10;1.00
2523;DHT22;1272;53.332;9.860;2024-02-04T07:37:40;6.10;1.00
2523;DHT22;1272;53.332;9.860;2024-02-04T07:40:06;6.10;1.00
2523;DHT22;1272;53.332;9.860;2024-02-04T07:42:32;6.10;1.00
2523;DHT22;1272;53.332;9.860;2024-02-04T07:44:58;6.10;23.60
2523;DHT22;1272;53.332;9.860;2024-02-04T07:47:23;6.10;32.50
2523;DHT22;1272;53.332;9.860;2024-02-04T07:49:50;6.20;1.00
2523;DHT22;1272;53.332;9.860;2024-02-04T07:52:16;6.20;1.00
2523;DHT22;1272;53.332;9.860;2024-02-04T07:54:42;6.20;1.00
2523;DHT22;1272;53.332;9.860;2024-02-04T07:57:11;6.20;1.00
2523;DHT22;1272;53.332;9.860;2024-02-04T07:59:37;6.20;1.00
2523;DHT22;1272;53.332;9.860;2024-02-04T08:02:06;6.20;1.00
2523;DHT22;1272;53.332;9.860;2024-02-04T08:04:35;6.20;1.00
2523;DHT22;1272;53.332;9.860;2024-02-04T08:07:01;6.20;1.00
2523;DHT22;1272;53.332;9.860;2024-02-04T08:09:27;6.30;1.00
2523;DHT22;1272;53.332;9.860;2024-02-04T08:11:52;6.30;99.90
2523;DHT22;1272;53.332;9.860;2024-02-04T08:14:18;6.30;99.90
2523;DHT22;1272;53.332;9.860;2024-02-04T08:16:44;6.30;99.90
2523;DHT22;1272;53.332;9.860;2024-02-04T08:19:11;6.30;99.90
2523;DHT22;1272;53.332;9.860;2024-02-04T08:21:37;6.40;99.90
2523;DHT22;1272;53.332;9.860;2024-02-04T08:24:03;6.30;99.90
2523;DHT22;1272;53.332;9.860;2024-02-04T08:26:29;6.40;99.90
2523;DHT22;1272;53.332;9.860;2024-02-04T08:28:55;6.40;99.90
2523;DHT22;1272;53.332;9.860;2024-02-04T08:31:21;6.40;99.90
2523;DHT22;1272;53.332;9.860;2024-02-04T08:33:46;6.40;99.90
2523;DHT22;1272;53.332;9.860;2024-02-04T08:36:12;6.40;99.90
2523;DHT22;1272;53.332;9.860;2024-02-04T08:38:38;6.40;99.90
2523;DHT22;1272;53.332;9.860;2024-02-04T08:41:04;6.40;99.90
2523;DHT22;1272;53.332;9.860;2024-02-04T08:43:30;6.40;99.90
2523;DHT22;1272;53.332;9.860;2024-02-04T08:45:55;6.50;99.90
2523;DHT22;1272;53.332;9.860;2024-02-04T08:48:21;6.60;37.80
2523;DHT22;1272;53.332;9.860;2024-02-04T08:50:47;6.60;1.00
2523;DHT22;1272;53.332;9.860;2024-02-04T08:53:12;6.60;1.00
2523;DHT22;1272;53.332;9.860;2024-02-04T08:55:38;6.60;1.00
2523;DHT22;1272;53.332;9.860;2024-02-04T08:58:04;6.70;7.60
2523;DHT22;1272;53.332;9.860;2024-02-04T09:00:30;6.80;1.00
2523;DHT22;1272;53.332;9.860;2024-02-04T09:02:56;6.80;99.90
2523;DHT22;1272;53.332;9.860;2024-02-04T09:05:22;6.80;99.90
2523;DHT22;1272;53.332;9.860;2024-02-04T09:07:48;6.80;99.90
2523;DHT22;1272;53.332;9.860;2024-02-04T09:10:13;6.80;99.90
2523;DHT22;1272;53.332;9.860;2024-02-04T09:12:39;6.80;99.90
2523;DHT22;1272;53.332;9.860;2024-02-04T09:15:05;6.80;99.90
2523;DHT22;1272;53.332;9.860;2024-02-04T09:17:31;6.90;99.90
2523;DHT22;1272;53.332;9.860;2024-02-04T09:20:00;6.90;20.10
2523;DHT22;1272;53.332;9.860;2024-02-04T09:22:26;6.90;56.10
2523;DHT22;1272;53.332;9.860;2024-02-04T09:24:52;6.90;1.00
2523;DHT22;1272;53.332;9.860;2024-02-04T09:27:17;6.90;1.00
2523;DHT22;1272;53.332;9.860;2024-02-04T09:29:43;6.90;41.90
2523;DHT22;1272;53.332;9.860;2024-02-04T09:32:09;6.90;16.30
2523;DHT22;1272;53.332;9.860;2024-02-04T09:34:34;7.00;1.00
2523;DHT22;1272;53.332;9.860;2024-02-04T09:37:00;7.00;1.00
2523;DHT22;1272;53.332;9.860;2024-02-04T09:39:26;7.00;1.00
2523;DHT22;1272;53.332;9.860;2024-02-04T09:41:52;7.10;1.00
2523;DHT22;1272;53.332;9.860;2024-02-04T09:44:19;7.00;99.90
2523;DHT22;1272;53.332;9.860;2024-02-04T09:46:45;7.00;99.90
2523;DHT22;1272;53.332;9.860;2024-02-04T09:49:12;7.10;99.90
2523;DHT22;1272;53.332;9.860;2024-02-04T09:51:40;7.10;99.90
2523;DHT22;1272;53.332;9.860;2024-02-04T09:54:06;7.20;99.90
2523;DHT22;1272;53.332;9.860;2024-02-04T09:56:34;7.20;99.90
2523;DHT22;1272;53.332;9.860;2024-02-04T09:59:01;7.20;99.90
2523;DHT22;1272;53.332;9.860;2024-02-04T10:01:27;7.10;7.70
2523;DHT22;1272;53.332;9.860;2024-02-04T10:03:53;7.20;11.80
2523;DHT22;1272;53.332;9.860;2024-02-04T10:06:19;7.20;1.00
2523;DHT22;1272;53.332;9.860;2024-02-04T10:08:44;7.10;33.40
2523;DHT22;1272;53.332;9.860;2024-02-04T10:11:11;7.20;1.00
2523;DHT22;1272;53.332;9.860;2024-02-04T10:13:47;7.20;1.00
2523;DHT22;1272;53.332;9.860;2024-02-04T10:16:14;7.20;1.00
2523;DHT22;1272;53.332;9.860;2024-02-04T10:18:44;7.20;1.00
2523;DHT22;1272;53.332;9.860;2024-02-04T10:21:20;7.20;1.00
2523;DHT22;1272;53.332;9.860;2024-02-04T10:23:49;7.30;1.00
2523;DHT22;1272;53.332;9.860;2024-02-04T10:26:16;7.30;1.00
2523;DHT22;1272;53.332;9.860;2024-02-04T10:28:42;7.30;1.00
2523;DHT22;1272;53.332;9.860;2024-02-04T10:31:10;7.30;99.90
2523;DHT22;1272;53.332;9.860;2024-02-04T10:33:38;7.30;99.90
2523;DHT22;1272;53.332;9.860;2024-02-04T10:36:05;7.40;99.90
2523;DHT22;1272;53.332;9.860;2024-02-04T10:38:33;7.40;99.90
2523;DHT22;1272;53.332;9.860;2024-02-04T10:41:00;7.40;99.90
2523;DHT22;1272;53.332;9.860;2024-02-04T10:43:33;7.40;99.90
2523;DHT22;1272;53.332;9.860;2024-02-04T10:46:19;7.30;99.90
2523;DHT22;1272;53.332;9.860;2024-02-04T10:48:55;7.40;99.90
2523;DHT22;1272;53.332;9.860;2024-02-04T10:51:24;7.50;99.90
2523;DHT22;1272;53.332;9.860;2024-02-04T10:53:54;7.50;1.00
2523;DHT22;1272;53.332;9.860;2024-02-04T10:56:37;7.50;33.00
2523;DHT22;1272;53.332;9.860;2024-02-04T10:59:03;7.60;1.00
2523;DHT22;1272;53.332;9.860;2024-02-04T11:01:31;7.60;1.00
2523;DHT22;1272;53.332;9.860;2024-02-04T11:03:57;7.70;1.00
2523;DHT22;1272;53.332;9.860;2024-02-04T11:06:24;7.70;1.00
2523;DHT22;1272;53.332;9.860;2024-02-04T11:08:52;7.70;1.00
2523;DHT22;1272;53.332;9.860;2024-02-04T11:11:18;7.70;1.00
2523;DHT22;1272;53.332;9.860;2024-02-04T11:13:48;7.70;1.00
2523;DHT22;1272;53.332;9.860;2024-02-04T11:25:19;7.80;1.00
2523;DHT22;1272;53.332;9.860;2024-02-04T11:27:52;7.80;99.90
2523;DHT22;1272;53.332;9.860;2024-02-04T11:30:18;7.80;99.90
2523;DHT22;1272;53.332;9.860;2024-02-04T11:32:45;7.80;99.90
2523;DHT22;1272;53.332;9.860;2024-02-04T11:35:11;7.90;99.90
2523;DHT22;1272;53.332;9.860;2024-02-04T11:37:38;7.90;99.90
2523;DHT22;1272;53.332;9.860;2024-02-04T11:40:04;7.90;99.90
2523;DHT22;1272;53.332;9.860;2024-02-04T11:42:33;8.00;99.90
2523;DHT22;1272;53.332;9.860;2024-02-04T11:45:13;8.00;99.90
2523;DHT22;1272;53.332;9.860;2024-02-04T11:47:40;8.00;99.90
2523;DHT22;1272;53.332;9.860;2024-02-04T11:50:06;8.00;99.90
2523;DHT22;1272;53.332;9.860;2024-02-04T11:52:33;8.00;99.90
2523;DHT22;1272;53.332;9.860;2024-02-04T11:54:59;8.00;99.90
2523;DHT22;1272;53.332;9.860;2024-02-04T11:57:25;8.20;99.90
2523;DHT22;1272;53.332;9.860;2024-02-04T11:59:53;8.20;99.90
2523;DHT22;1272;53.332;9.860;2024-02-04T12:02:22;8.10;99.90
2523;DHT22;1272;53.332;9.860;2024-02-04T12:04:48;8.10;99.90
2523;DHT22;1272;53.332;9.860;2024-02-04T12:07:14;8.10;99.90
2523;DHT22;1272;53.332;9.860;2024-02-04T12:09:41;8.10;99.90
2523;DHT22;1272;53.332;9.860;2024-02-04T12:12:07;8.20;99.90
2523;DHT22;1272;53.332;9.860;2024-02-04T12:14:35;8.30;99.90
2523;DHT22;1272;53.332;9.860;2024-02-04T12:17:10;8.20;99.90
2523;DHT22;1272;53.332;9.860;2024-02-04T12:19:36;8.30;99.90
2523;DHT22;1272;53.332;9.860;2024-02-04T12:22:02;8.30;99.90
2523;DHT22;1272;53.332;9.860;2024-02-04T12:24:37;8.30;96.70
2523;DHT22;1272;53.332;9.860;2024-02-04T12:27:04;8.40;99.90
2523;DHT22;1272;53.332;9.860;2024-02-04T12:29:30;8.40;15.60
2523;DHT22;1272;53.332;9.860;2024-02-04T12:32:01;8.40;1.00
2523;DHT22;1272;53.332;9.860;2024-02-04T12:34:28;8.40;1.00
2523;DHT22;1272;53.332;9.860;2024-02-04T12:36:58;8.50;1.00
2523;DHT22;1272;53.332;9.860;2024-02-04T12:39:24;8.50;1.00
2523;DHT22;1272;53.332;9.860;2024-02-04T12:41:53;8.50;1.00
2523;DHT22;1272;53.332;9.860;2024-02-04T12:44:19;8.60;1.00
2523;DHT22;1272;53.332;9.860;2024-02-04T12:46:45;8.50;1.00
2523;DHT22;1272;53.332;9.860;2024-02-04T12:49:20;8.40;1.00
2523;DHT22;1272;53.332;9.860;2024-02-04T12:51:50;8.40;27.00
2523;DHT22;1272;53.332;9.860;2024-02-04T12:54:21;8.40;1.00
2523;DHT22;1272;53.332;9.860;2024-02-04T12:56:48;8.30;98.90
2523;DHT22;1272;53.332;9.860;2024-02-04T13:02:00;8.40;35.10
2523;DHT22;1272;53.332;9.860;2024-02-04T13:04:32;8.50;1.00
2523;DHT22;1272;53.332;9.860;2024-02-04T13:06:58;8.40;14.20
2523;DHT22;1272;53.332;9.860;2024-02-04T13:09:24;8.40;1.00
2523;DHT22;1272;53.332;9.860;2024-02-04T13:11:50;8.30;1.00
2523;DHT22;1272;53.332;9.860;2024-02-04T13:14:15;8.30;98.90
2523;DHT22;1272;53.332;9.860;2024-02-04T13:16:42;8.40;3.10
2523;DHT22;1272;53.332;9.860;2024-02-04T13:19:07;8.30;58.50
2523;DHT22;1272;53.332;9.860;2024-02-04T13:21:33;8.40;99.90
2523;DHT22;1272;53.332;9.860;2024-02-04T13:23:59;8.40;57.10
2523;DHT22;1272;53.332;9.860;2024-02-04T13:26:24;8.40;45.80
2523;DHT22;1272;53.332;9.860;2024-02-04T13:28:50;8.40;13.60
2523;DHT22;1272;53.332;9.860;2024-02-04T13:31:16;8.40;49.80
2523;DHT22;1272;53.332;9.860;2024-02-04T13:33:42;8.40;99.90
2523;DHT22;1272;53.332;9.860;2024-02-04T13:36:07;8.40;99.90
2523;DHT22;1272;53.332;9.860;2024-02-04T13:38:34;8.30;99.90
2523;DHT22;1272;53.332;9.860;2024-02-04T13:41:04;8.40;99.90
2523;DHT22;1272;53.332;9.860;2024-02-04T13:43:31;8.40;67.70
2523;DHT22;1272;53.332;9.860;2024-02-04T13:45:59;8.30;99.90
2523;DHT22;1272;53.332;9.860;2024-02-04T13:48:24;8.40;99.90
2523;DHT22;1272;53.332;9.860;2024-02-04T13:50:51;8.40;84.70
2523;DHT22;1272;53.332;9.860;2024-02-04T13:53:17;8.50;38.00
2523;DHT22;1272;53.332;9.860;2024-02-04T13:55:43;8.40;99.90
2523;DHT22;1272;53.332;9.860;2024-02-04T13:58:10;8.30;99.90
2523;DHT22;1272;53.332;9.860;2024-02-04T14:00:36;8.30;99.90
2523;DHT22;1272;53.332;9.860;2024-02-04T14:03:02;8.30;99.90
2523;DHT22;1272;53.332;9.860;2024-02-04T14:05:28;8.30;99.90
2523;DHT22;1272;53.332;9.860;2024-02-04T14:07:54;8.30;99.90
2523;DHT22;1272;53.332;9.860;2024-02-04T14:10:20;8.30;99.90
2523;DHT22;1272;53.332;9.860;2024-02-04T14:12:47;8.30;99.90
2523;DHT22;1272;53.332;9.860;2024-02-04T14:15:12;8.30;99.90
2523;DHT22;1272;53.332;9.860;2024-02-04T14:17:38;8.30;99.90
2523;DHT22;1272;53.332;9.860;2024-02-04T14:20:05;8.30;99.90
2523;DHT22;1272;53.332;9.860;2024-02-04T14:22:31;8.30;99.90
2523;DHT22;1272;53.332;9.860;2024-02-04T14:24:57;8.30;99.90
2523;DHT22;1272;53.332;9.860;2024-02-04T14:27:25;8.40;47.60
2523;DHT22;1272;53.332;9.860;2024-02-04T14:29:51;8.30;99.90
2523;DHT22;1272;53.332;9.860;2024-02-04T14:32:16;8.30;99.90
2523;DHT22;1272;53.332;9.860;2024-02-04T14:34:43;8.30;99.90
2523;DHT22;1272;53.332;9.860;2024-02-04T14:37:09;8.30;99.90
2523;DHT22;1272;53.332;9.860;2024-02-04T14:39:36;8.20;99.90
2523;DHT22;1272;53.332;9.860;2024-02-04T14:42:01;8.20;99.90
2523;DHT22;1272;53.332;9.860;2024-02-04T14:44:27;8.20;99.90
2523;DHT22;1272;53.332;9.860;2024-02-04T14:46:53;8.30;99.90
2523;DHT22;1272;53.332;9.860;2024-02-04T14:49:19;8.20;99.90
2523;DHT22;1272;53.332;9.860;2024-02-04T14:51:44;8.20;1.00
2523;DHT22;1272;53.332;9.860;2024-02-04T14:54:10;8.20;1.00
2523;DHT22;1272;53.332;9.860;2024-02-04T14:56:40;8.10;1.00
2523;DHT22;1272;53.332;9.860;2024-02-04T14:59:08;8.10;1.00
2523;DHT22;1272;53.332;9.860;2024-02-04T15:01:34;8.20;1.00
2523;DHT22;1272;53.332;9.860;2024-02-04T15:04:00;8.20;30.00
2523;DHT22;1272;53.332;9.860;2024-02-04T15:06:26;8.20;83.40
2523;DHT22;1272;53.332;9.860;2024-02-04T15:08:52;8.10;99.90
2523;DHT22;1272;53.332;9.860;2024-02-04T15:11:18;8.10;99.90
2523;DHT22;1272;53.332;9.860;2024-02-04T15:13:45;8.10;1.00
2523;DHT22;1272;53.332;9.860;2024-02-04T15:16:11;8.00;10.90
2523;DHT22;1272;53.332;9.860;2024-02-04T15:18:38;8.00;99.90
2523;DHT22;1272;53.332;9.860;2024-02-04T15:21:04;8.00;99.90
2523;DHT22;1272;53.332;9.860;2024-02-04T15:23:30;8.00;99.90
2523;DHT22;1272;53.332;9.860;2024-02-04T15:25:57;8.00;1.00
2523;DHT22;1272;53.332;9.860;2024-02-04T15:28:24;7.90;1.00
2523;DHT22;1272;53.332;9.860;2024-02-04T15:30:50;7.90;1.00
2523;DHT22;1272;53.332;9.860;2024-02-04T15:33:16;7.80;1.00
2523;DHT22;1272;53.332;9.860;2024-02-04T15:35:43;7.80;99.90
2523;DHT22;1272;53.332;9.860;2024-02-04T15:38:09;7.70;1.00
2523;DHT22;1272;53.332;9.860;2024-02-04T15:40:35;7.70;1.00
2523;DHT22;1272;53.332;9.860;2024-02-04T15:43:01;7.70;99.90
2523;DHT22;1272;53.332;9.860;2024-02-04T15:45:27;7.70;1.00
2523;DHT22;1272;53.332;9.860;2024-02-04T15:47:53;7.70;1.00
2523;DHT22;1272;53.332;9.860;2024-02-04T15:50:20;7.60;21.20
2523;DHT22;1272;53.332;9.860;2024-02-04T15:52:49;7.70;67.40
2523;DHT22;1272;53.332;9.860;2024-02-04T15:55:17;7.60;99.90
2523;DHT22;1272;53.332;9.860;2024-02-04T15:57:51;7.60;99.90
2523;DHT22;1272;53.332;9.860;2024-02-04T16:00:18;7.50;1.00
2523;DHT22;1272;53.332;9.860;2024-02-04T16:02:48;7.60;1.00
2523;DHT22;1272;53.332;9.860;2024-02-04T16:05:15;7.60;99.90
2523;DHT22;1272;53.332;9.860;2024-02-04T16:07:42;7.50;1.00
2523;DHT22;1272;53.332;9.860;2024-02-04T16:10:10;7.50;1.00
2523;DHT22;1272;53.332;9.860;2024-02-04T16:12:36;7.40;1.00
2523;DHT22;1272;53.332;9.860;2024-02-04T16:15:06;7.40;1.00
2523;DHT22;1272;53.332;9.860;2024-02-04T16:17:37;7.40;1.00
2523;DHT22;1272;53.332;9.860;2024-02-04T16:20:05;7.40;1.00
2523;DHT22;1272;53.332;9.860;2024-02-04T16:22:31;7.40;27.10
2523;DHT22;1272;53.332;9.860;2024-02-04T16:24:57;7.40;56.40
2523;DHT22;1272;53.332;9.860;2024-02-04T16:27:23;7.30;99.90
2523;DHT22;1272;53.332;9.860;2024-02-04T16:29:48;7.30;99.90
2523;DHT22;1272;53.332;9.860;2024-02-04T16:32:14;7.40;99.90
2523;DHT22;1272;53.332;9.860;2024-02-04T16:34:40;7.40;99.70